Emerald Coast — WDC9127 — position and weather

sailwx.info

Track history (hours):
 
Tides and Currents Weather Stations Pressure Air Temp Water Temp Dewpoint Dewpoint Depression Visibility Wind Speed Wind Dir Waves Ship Positions

Emerald Coast

Owner: Dann Marine Towing, LC, Chesapeake City, MD. More information available from US FCC via Universal Licensing System and Coast Guard Vessel Documentation Center.

Last reported at 2018-Jan-20 15:00 UTC. Time now 2018-Jan-20 15:31 UTC.
Position N 40°40' W 074°00'.

Length 24 m; draft 3 m.

Type: Tug. MMSI: 367097920.

Date/timePositionNaut miles runAvg speedWind from/ knotsBaromVisibWave heightAir tempDewpointWater temp
2018-Jan-20 15:00N 40°40' W 074°00'0 0.0
2018-Jan-20 14:30N 40°40' W 074°00'0 0.0
2018-Jan-20 14:00N 40°40' W 074°00'0 0.0
2018-Jan-20 13:30N 40°40' W 074°00'2 4.5
2018-Jan-20 13:00N 40°41' W 074°03'0 0.4
2018-Jan-20 12:30N 40°40' W 074°03'2 3.6
2018-Jan-20 12:00N 40°39' W 074°05'3 5.2
2018-Jan-20 11:30N 40°39' W 074°08'2 4.4
2018-Jan-20 11:00N 40°41' W 074°08'1 1.1
2018-Jan-20 10:30N 40°41' W 074°08'1 1.3
2018-Jan-20 10:00N 40°41' W 074°09'1 2.5
2018-Jan-20 09:30N 40°40' W 074°09'2 3.3
2018-Jan-20 09:00N 40°39' W 074°07'0 0.2
2018-Jan-20 08:30N 40°39' W 074°07'1 1.4
2018-Jan-20 08:00N 40°38' W 074°07'0 0.0
2018-Jan-20 07:30N 40°38' W 074°07'0 0.0
2018-Jan-20 07:00N 40°38' W 074°07'0 0.0
2018-Jan-20 06:30N 40°38' W 074°07'0 0.0
2018-Jan-20 06:00N 40°38' W 074°07'1 1.6
2018-Jan-20 05:30N 40°39' W 074°06'4 8.0
2018-Jan-20 05:00N 40°41' W 074°02'4 8.7
2018-Jan-20 04:30N 40°46' W 074°01'4 7.7
2018-Jan-20 04:00N 40°49' W 073°58'4 7.5
2018-Jan-20 03:30N 40°52' W 073°56'3 7.0
2018-Jan-20 03:00N 40°56' W 073°55'0 0.3
2018-Jan-20 02:30N 40°56' W 073°54'0 0.1
2018-Jan-20 01:59N 40°56' W 073°54'0 0.0
2018-Jan-20 01:28N 40°56' W 073°54'0 1.0
2018-Jan-20 01:00N 40°55' W 073°55'4 8.2
2018-Jan-20 00:30N 40°52' W 073°57'4 7.8
2018-Jan-20 00:00N 40°48' W 073°59'3 7.1
2018-Jan-19 23:30N 40°45' W 074°01'3 6.1
2018-Jan-19 23:00N 40°42' W 074°02'2 4.7
2018-Jan-19 22:30N 40°40' W 074°00'0 0.0
2018-Jan-19 22:00N 40°40' W 074°00'0 0.7
2018-Jan-19 21:30N 40°40' W 074°01'2 3.9
2018-Jan-19 21:00N 40°40' W 074°03'2 4.2
2018-Jan-19 20:30N 40°39' W 074°05'3 6.2
2018-Jan-19 20:00N 40°40' W 074°01'1 2.0
2018-Jan-19 19:30N 40°40' W 074°00'1 1.4
2018-Jan-19 19:00N 40°40' W 074°01'3 5.3
2018-Jan-19 18:30N 40°38' W 074°04'0 0.4
2018-Jan-19 18:00N 40°38' W 074°04'5 9.6
2018-Jan-19 17:30N 40°43' W 074°02'3 7.0
2018-Jan-19 17:00N 40°46' W 074°00'0 0.1
2018-Jan-19 16:27N 40°46' W 074°00'6 6.2
2018-Jan-19 15:30N 40°41' W 074°03'4 7.6
2018-Jan-19 15:00N 40°39' W 074°07'0 0.2
2018-Jan-19 14:30N 40°38' W 074°07'0 0.3
2018-Jan-19 14:00N 40°39' W 074°07'0 0.5
2018-Jan-19 13:30N 40°39' W 074°07'4 7.3
2018-Jan-19 13:00N 40°40' W 074°03'4 7.3
2018-Jan-19 12:30N 40°43' W 073°59'3 6.4
2018-Jan-19 12:00N 40°46' W 073°57'3 5.5
2018-Jan-19 11:30N 40°48' W 073°55'3 5.9
2018-Jan-19 10:57N 40°46' W 073°51'1 3.2
2018-Jan-19 10:30N 40°47' W 073°52'4 7.2
2018-Jan-19 10:00N 40°47' W 073°56'4 8.1
2018-Jan-19 09:30N 40°43' W 073°58'3 6.9
2018-Jan-19 09:00N 40°40' W 074°01'1 1.1
2018-Jan-19 08:30N 40°40' W 074°00'0 0.0
2018-Jan-19 08:00N 40°40' W 074°00'0 0.0
2018-Jan-19 07:30N 40°40' W 074°00'0 0.0
2018-Jan-19 07:00N 40°40' W 074°00'0 0.0
2018-Jan-19 06:30N 40°40' W 074°00'0 0.0
2018-Jan-19 06:00N 40°40' W 074°00'0 0.0
2018-Jan-19 05:30N 40°40' W 074°00'0 0.0
2018-Jan-19 05:00N 40°40' W 074°00'0 0.0
2018-Jan-19 04:30N 40°40' W 074°00'0 0.0
2018-Jan-19 04:00N 40°40' W 074°00'0 0.0
2018-Jan-19 03:30N 40°40' W 074°00'0 0.0
2018-Jan-19 03:00N 40°40' W 074°00'0 0.0
2018-Jan-19 02:30N 40°40' W 074°00'0 0.0
2018-Jan-19 02:00N 40°40' W 074°00'0 0.0
2018-Jan-19 01:30N 40°40' W 074°00'0 0.0
2018-Jan-19 01:00N 40°40' W 074°00'0 0.0
2018-Jan-19 00:30N 40°40' W 074°00'0 0.0
2018-Jan-19 00:00N 40°40' W 074°00'0 0.0
2018-Jan-18 23:30N 40°40' W 074°00'0 0.0
2018-Jan-18 23:00N 40°40' W 074°00'0 0.0
2018-Jan-18 22:30N 40°40' W 074°00'0 0.0
2018-Jan-18 22:00N 40°40' W 074°00'0 0.0
2018-Jan-18 21:30N 40°40' W 074°00'3 5.2
2018-Jan-18 21:00N 40°38' W 074°03'0 0.2
2018-Jan-18 20:30N 40°39' W 074°03'0 0.2
2018-Jan-18 20:00N 40°38' W 074°03'0 0.1
2018-Jan-18 19:30N 40°38' W 074°03'2 3.6
2018-Jan-18 19:00N 40°40' W 074°04'0 0.0
2018-Jan-18 18:30N 40°40' W 074°04'1 2.1
2018-Jan-18 18:00N 40°40' W 074°03'2 3.2
2018-Jan-18 17:30N 40°39' W 074°04'1 1.3
2018-Jan-18 17:00N 40°39' W 074°05'0 0.0
2018-Jan-18 16:30N 40°39' W 074°05'0 0.0
2018-Jan-18 16:00N 40°39' W 074°05'0 0.0
2018-Jan-18 15:30N 40°39' W 074°05'0 0.0
2018-Jan-18 15:00N 40°39' W 074°05'0 0.0
2018-Jan-18 14:30N 40°39' W 074°05'2 3.4
2018-Jan-18 14:00N 40°38' W 074°07'0 0.0
2018-Jan-18 13:30N 40°38' W 074°07'0 0.0
2018-Jan-18 12:59N 40°38' W 074°07'1 0.5
2018-Jan-18 11:26N 40°39' W 074°08'3 7.0
2018-Jan-18 10:59N 40°38' W 074°12'1 0.5
2018-Jan-18 08:38N 40°39' W 074°11'1 9.1
2018-Jan-18 08:30N 40°39' W 074°10'2 0.7
2018-Jan-18 05:30N 40°39' W 074°07'0 0.0
2018-Jan-18 05:00N 40°39' W 074°07'2 3.6
2018-Jan-18 04:30N 40°39' W 074°05'0 0.0
2018-Jan-18 04:00N 40°39' W 074°05'0 0.6
2018-Jan-18 03:30N 40°39' W 074°05'3 5.6
2018-Jan-18 03:00N 40°41' W 074°02'1 1.6
2018-Jan-18 02:30N 40°41' W 074°01'1 2.2
2018-Jan-18 02:00N 40°40' W 074°00'0 0.0
2018-Jan-18 01:30N 40°40' W 074°00'0 0.0
2018-Jan-18 01:00N 40°40' W 074°00'0 0.3
2018-Jan-18 00:00N 40°40' W 074°00'0 0.1
2018-Jan-17 23:57N 40°40' W 074°00'  
2018-Jan-12 15:00N 40°39' W 074°06'1 1.5
2018-Jan-12 14:30N 40°39' W 074°05'0 0.4
2018-Jan-12 14:00N 40°39' W 074°05'0 0.0
2018-Jan-12 13:30N 40°39' W 074°05'2 1.5
2018-Jan-12 12:22N 40°38' W 074°07'0 0.0
2018-Jan-12 10:52N 40°38' W 074°07'0 0.0
2018-Jan-12 10:21N 40°38' W 074°07'0 0.0
2018-Jan-12 10:00N 40°38' W 074°07'0 0.0
2018-Jan-12 08:18N 40°38' W 074°07'0 0.0
2018-Jan-12 07:57N 40°38' W 074°07'0 0.0
2018-Jan-12 07:30N 40°38' W 074°07'0 0.0
2018-Jan-12 07:00N 40°38' W 074°07'0 0.0
2018-Jan-12 06:30N 40°38' W 074°07'0 0.0
2018-Jan-12 05:58N 40°38' W 074°07'2 4.0
2018-Jan-12 05:30N 40°39' W 074°05'0 0.0
2018-Jan-12 05:00N 40°39' W 074°05'0 0.0
2018-Jan-12 04:30N 40°39' W 074°05'0 0.0
2018-Jan-12 04:00N 40°39' W 074°05'0 0.0
2018-Jan-12 03:30N 40°39' W 074°05'0 0.0
2018-Jan-12 03:00N 40°39' W 074°05'0 0.0
2018-Jan-12 02:30N 40°39' W 074°05'0 0.1
2018-Jan-12 02:00N 40°39' W 074°05'0 0.5
2018-Jan-12 01:30N 40°39' W 074°05'4 7.1
2018-Jan-12 01:00N 40°40' W 074°00'0 0.0
2018-Jan-12 00:30N 40°40' W 074°00'0 0.0
2018-Jan-12 00:00N 40°40' W 074°00'0 0.0
2018-Jan-11 23:30N 40°40' W 074°00'1 2.4
2018-Jan-11 23:00N 40°39' W 074°02'4 8.3
2018-Jan-11 22:30N 40°39' W 074°07'0 0.0
2018-Jan-11 22:00N 40°39' W 074°07'0 0.0
2018-Jan-11 21:30N 40°39' W 074°07'0 0.1
2018-Jan-11 20:59N 40°39' W 074°07'1 2.2
2018-Jan-11 20:30N 40°39' W 074°06'2 5.0
2018-Jan-11 20:00N 40°40' W 074°03'2 3.8
2018-Jan-11 19:27N 40°39' W 074°05'3 4.5
2018-Jan-11 18:50N 40°39' W 074°09'2 1.7
2018-Jan-11 17:58N 40°41' W 074°09'0 0.0
2018-Jan-11 16:44N 40°41' W 074°09'1 3.5
2018-Jan-11 16:30N 40°40' W 074°08'2 3.8
2018-Jan-11 16:00N 40°39' W 074°07'0 0.5
2018-Jan-11 15:30N 40°39' W 074°06'1 2.4
2018-Jan-11 15:00N 40°39' W 074°05'2 3.4
2018-Jan-11 14:30N 40°40' W 074°03'2 3.8
2018-Jan-11 13:58N 40°39' W 074°05'2 3.5
2018-Jan-11 13:30N 40°39' W 074°07'0 0.0
2018-Jan-11 12:05N 40°39' W 074°07'0 0.0
2018-Jan-11 10:15N 40°39' W 074°07'0 0.0
2018-Jan-11 04:23N 40°39' W 074°07'0 0.0
2018-Jan-11 03:54N 40°39' W 074°07'3 8.0
2018-Jan-11 03:30N 40°40' W 074°03'0 0.6
2018-Jan-11 03:00N 40°40' W 074°04'6 3.9
2018-Jan-11 01:32N 40°39' W 074°11'0 1.0
2018-Jan-11 01:22N 40°39' W 074°11'0 0.1
2018-Jan-10 23:52N 40°39' W 074°11'2 5.6
2018-Jan-10 23:30N 40°39' W 074°09'2 3.3
2018-Jan-10 23:00N 40°39' W 074°07'0 0.1
2018-Jan-10 22:24N 40°39' W 074°07'0 0.0
2018-Jan-10 21:57N 40°39' W 074°07'3 7.6
2018-Jan-10 21:30N 40°39' W 074°02'2 3.7
2018-Jan-10 21:00N 40°40' W 074°00'0 0.0
2018-Jan-10 20:30N 40°40' W 074°00'0 0.0
2018-Jan-10 20:00N 40°40' W 074°00'0 0.0
2018-Jan-10 19:30N 40°40' W 074°00'0 0.0
2018-Jan-10 19:00N 40°40' W 074°00'0 0.0
2018-Jan-10 18:30N 40°40' W 074°00'0 0.2
2018-Jan-10 18:00N 40°40' W 074°00'0 0.0
2018-Jan-10 17:30N 40°40' W 074°00'0 0.0
2018-Jan-10 17:00N 40°40' W 074°00'0 0.0
2018-Jan-10 16:30N 40°40' W 074°00'0 0.0
2018-Jan-10 16:00N 40°40' W 074°00'3 5.8
2018-Jan-10 15:30N 40°39' W 074°04'  
Track history (hours):
 
Tides and Currents Weather Stations Pressure Air Temp Water Temp Dewpoint Dewpoint Depression Visibility Wind Speed Wind Dir Waves Ship Positions

Emerald Coast

Owner: Dann Marine Towing, LC, Chesapeake City, MD. More information available from US FCC via Universal Licensing System and Coast Guard Vessel Documentation Center.

Last reported at 2018-Jan-20 15:00 UTC. Time now 2018-Jan-20 15:31 UTC.
Position N 40°40' W 074°00'.

Length 24 m; draft 3 m.

Type: Tug. MMSI: 367097920.

Date/timePositionNaut miles runAvg speedWind from/ knotsBaromVisibWave heightAir tempDewpointWater temp
2018-Jan-20 15:00N 40°40' W 074°00'0 0.0
2018-Jan-20 14:30N 40°40' W 074°00'0 0.0
2018-Jan-20 14:00N 40°40' W 074°00'0 0.0
2018-Jan-20 13:30N 40°40' W 074°00'2 4.5
2018-Jan-20 13:00N 40°41' W 074°03'0 0.4
2018-Jan-20 12:30N 40°40' W 074°03'2 3.6
2018-Jan-20 12:00N 40°39' W 074°05'3 5.2
2018-Jan-20 11:30N 40°39' W 074°08'2 4.4
2018-Jan-20 11:00N 40°41' W 074°08'1 1.1
2018-Jan-20 10:30N 40°41' W 074°08'1 1.3
2018-Jan-20 10:00N 40°41' W 074°09'1 2.5
2018-Jan-20 09:30N 40°40' W 074°09'2 3.3
2018-Jan-20 09:00N 40°39' W 074°07'0 0.2
2018-Jan-20 08:30N 40°39' W 074°07'1 1.4
2018-Jan-20 08:00N 40°38' W 074°07'0 0.0
2018-Jan-20 07:30N 40°38' W 074°07'0 0.0
2018-Jan-20 07:00N 40°38' W 074°07'0 0.0
2018-Jan-20 06:30N 40°38' W 074°07'0 0.0
2018-Jan-20 06:00N 40°38' W 074°07'1 1.6
2018-Jan-20 05:30N 40°39' W 074°06'4 8.0
2018-Jan-20 05:00N 40°41' W 074°02'4 8.7
2018-Jan-20 04:30N 40°46' W 074°01'4 7.7
2018-Jan-20 04:00N 40°49' W 073°58'4 7.5
2018-Jan-20 03:30N 40°52' W 073°56'3 7.0
2018-Jan-20 03:00N 40°56' W 073°55'0 0.3
2018-Jan-20 02:30N 40°56' W 073°54'0 0.1
2018-Jan-20 01:59N 40°56' W 073°54'0 0.0
2018-Jan-20 01:28N 40°56' W 073°54'0 1.0
2018-Jan-20 01:00N 40°55' W 073°55'4 8.2
2018-Jan-20 00:30N 40°52' W 073°57'4 7.8
2018-Jan-20 00:00N 40°48' W 073°59'3 7.1
2018-Jan-19 23:30N 40°45' W 074°01'3 6.1
2018-Jan-19 23:00N 40°42' W 074°02'2 4.7
2018-Jan-19 22:30N 40°40' W 074°00'0 0.0
2018-Jan-19 22:00N 40°40' W 074°00'0 0.7
2018-Jan-19 21:30N 40°40' W 074°01'2 3.9
2018-Jan-19 21:00N 40°40' W 074°03'2 4.2
2018-Jan-19 20:30N 40°39' W 074°05'3 6.2
2018-Jan-19 20:00N 40°40' W 074°01'1 2.0
2018-Jan-19 19:30N 40°40' W 074°00'1 1.4
2018-Jan-19 19:00N 40°40' W 074°01'3 5.3
2018-Jan-19 18:30N 40°38' W 074°04'0 0.4
2018-Jan-19 18:00N 40°38' W 074°04'5 9.6
2018-Jan-19 17:30N 40°43' W 074°02'3 7.0
2018-Jan-19 17:00N 40°46' W 074°00'0 0.1
2018-Jan-19 16:27N 40°46' W 074°00'6 6.2
2018-Jan-19 15:30N 40°41' W 074°03'4 7.6
2018-Jan-19 15:00N 40°39' W 074°07'0 0.2
2018-Jan-19 14:30N 40°38' W 074°07'0 0.3
2018-Jan-19 14:00N 40°39' W 074°07'0 0.5
2018-Jan-19 13:30N 40°39' W 074°07'4 7.3
2018-Jan-19 13:00N 40°40' W 074°03'4 7.3
2018-Jan-19 12:30N 40°43' W 073°59'3 6.4
2018-Jan-19 12:00N 40°46' W 073°57'3 5.5
2018-Jan-19 11:30N 40°48' W 073°55'3 5.9
2018-Jan-19 10:57N 40°46' W 073°51'1 3.2
2018-Jan-19 10:30N 40°47' W 073°52'4 7.2
2018-Jan-19 10:00N 40°47' W 073°56'4 8.1
2018-Jan-19 09:30N 40°43' W 073°58'3 6.9
2018-Jan-19 09:00N 40°40' W 074°01'1 1.1
2018-Jan-19 08:30N 40°40' W 074°00'0 0.0
2018-Jan-19 08:00N 40°40' W 074°00'0 0.0
2018-Jan-19 07:30N 40°40' W 074°00'0 0.0
2018-Jan-19 07:00N 40°40' W 074°00'0 0.0
2018-Jan-19 06:30N 40°40' W 074°00'0 0.0
2018-Jan-19 06:00N 40°40' W 074°00'0 0.0
2018-Jan-19 05:30N 40°40' W 074°00'0 0.0
2018-Jan-19 05:00N 40°40' W 074°00'0 0.0
2018-Jan-19 04:30N 40°40' W 074°00'0 0.0
2018-Jan-19 04:00N 40°40' W 074°00'0 0.0
2018-Jan-19 03:30N 40°40' W 074°00'0 0.0
2018-Jan-19 03:00N 40°40' W 074°00'0 0.0
2018-Jan-19 02:30N 40°40' W 074°00'0 0.0
2018-Jan-19 02:00N 40°40' W 074°00'0 0.0
2018-Jan-19 01:30N 40°40' W 074°00'0 0.0
2018-Jan-19 01:00N 40°40' W 074°00'0 0.0
2018-Jan-19 00:30N 40°40' W 074°00'0 0.0
2018-Jan-19 00:00N 40°40' W 074°00'0 0.0
2018-Jan-18 23:30N 40°40' W 074°00'0 0.0
2018-Jan-18 23:00N 40°40' W 074°00'0 0.0
2018-Jan-18 22:30N 40°40' W 074°00'0 0.0
2018-Jan-18 22:00N 40°40' W 074°00'0 0.0
2018-Jan-18 21:30N 40°40' W 074°00'3 5.2
2018-Jan-18 21:00N 40°38' W 074°03'0 0.2
2018-Jan-18 20:30N 40°39' W 074°03'0 0.2
2018-Jan-18 20:00N 40°38' W 074°03'0 0.1
2018-Jan-18 19:30N 40°38' W 074°03'2 3.6
2018-Jan-18 19:00N 40°40' W 074°04'0 0.0
2018-Jan-18 18:30N 40°40' W 074°04'1 2.1
2018-Jan-18 18:00N 40°40' W 074°03'2 3.2
2018-Jan-18 17:30N 40°39' W 074°04'1 1.3
2018-Jan-18 17:00N 40°39' W 074°05'0 0.0
2018-Jan-18 16:30N 40°39' W 074°05'0 0.0
2018-Jan-18 16:00N 40°39' W 074°05'0 0.0
2018-Jan-18 15:30N 40°39' W 074°05'0 0.0
2018-Jan-18 15:00N 40°39' W 074°05'0 0.0
2018-Jan-18 14:30N 40°39' W 074°05'2 3.4
2018-Jan-18 14:00N 40°38' W 074°07'0 0.0
2018-Jan-18 13:30N 40°38' W 074°07'0 0.0
2018-Jan-18 12:59N 40°38' W 074°07'1 0.5
2018-Jan-18 11:26N 40°39' W 074°08'3 7.0
2018-Jan-18 10:59N 40°38' W 074°12'1 0.5
2018-Jan-18 08:38N 40°39' W 074°11'1 9.1
2018-Jan-18 08:30N 40°39' W 074°10'2 0.7
2018-Jan-18 05:30N 40°39' W 074°07'0 0.0
2018-Jan-18 05:00N 40°39' W 074°07'2 3.6
2018-Jan-18 04:30N 40°39' W 074°05'0 0.0
2018-Jan-18 04:00N 40°39' W 074°05'0 0.6
2018-Jan-18 03:30N 40°39' W 074°05'3 5.6
2018-Jan-18 03:00N 40°41' W 074°02'1 1.6
2018-Jan-18 02:30N 40°41' W 074°01'1 2.2
2018-Jan-18 02:00N 40°40' W 074°00'0 0.0
2018-Jan-18 01:30N 40°40' W 074°00'0 0.0
2018-Jan-18 01:00N 40°40' W 074°00'0 0.3
2018-Jan-18 00:00N 40°40' W 074°00'0 0.1
2018-Jan-17 23:57N 40°40' W 074°00'  
2018-Jan-12 15:00N 40°39' W 074°06'1 1.5
2018-Jan-12 14:30N 40°39' W 074°05'0 0.4
2018-Jan-12 14:00N 40°39' W 074°05'0 0.0
2018-Jan-12 13:30N 40°39' W 074°05'2 1.5
2018-Jan-12 12:22N 40°38' W 074°07'0 0.0
2018-Jan-12 10:52N 40°38' W 074°07'0 0.0
2018-Jan-12 10:21N 40°38' W 074°07'0 0.0
2018-Jan-12 10:00N 40°38' W 074°07'0 0.0
2018-Jan-12 08:18N 40°38' W 074°07'0 0.0
2018-Jan-12 07:57N 40°38' W 074°07'0 0.0
2018-Jan-12 07:30N 40°38' W 074°07'0 0.0
2018-Jan-12 07:00N 40°38' W 074°07'0 0.0
2018-Jan-12 06:30N 40°38' W 074°07'0 0.0
2018-Jan-12 05:58N 40°38' W 074°07'2 4.0
2018-Jan-12 05:30N 40°39' W 074°05'0 0.0
2018-Jan-12 05:00N 40°39' W 074°05'0 0.0
2018-Jan-12 04:30N 40°39' W 074°05'0 0.0
2018-Jan-12 04:00N 40°39' W 074°05'0 0.0
2018-Jan-12 03:30N 40°39' W 074°05'0 0.0
2018-Jan-12 03:00N 40°39' W 074°05'0 0.0
2018-Jan-12 02:30N 40°39' W 074°05'0 0.1
2018-Jan-12 02:00N 40°39' W 074°05'0 0.5
2018-Jan-12 01:30N 40°39' W 074°05'4 7.1
2018-Jan-12 01:00N 40°40' W 074°00'0 0.0
2018-Jan-12 00:30N 40°40' W 074°00'0 0.0
2018-Jan-12 00:00N 40°40' W 074°00'0 0.0
2018-Jan-11 23:30N 40°40' W 074°00'1 2.4
2018-Jan-11 23:00N 40°39' W 074°02'4 8.3
2018-Jan-11 22:30N 40°39' W 074°07'0 0.0
2018-Jan-11 22:00N 40°39' W 074°07'0 0.0
2018-Jan-11 21:30N 40°39' W 074°07'0 0.1
2018-Jan-11 20:59N 40°39' W 074°07'1 2.2
2018-Jan-11 20:30N 40°39' W 074°06'2 5.0
2018-Jan-11 20:00N 40°40' W 074°03'2 3.8
2018-Jan-11 19:27N 40°39' W 074°05'3 4.5
2018-Jan-11 18:50N 40°39' W 074°09'2 1.7
2018-Jan-11 17:58N 40°41' W 074°09'0 0.0
2018-Jan-11 16:44N 40°41' W 074°09'1 3.5
2018-Jan-11 16:30N 40°40' W 074°08'2 3.8
2018-Jan-11 16:00N 40°39' W 074°07'0 0.5
2018-Jan-11 15:30N 40°39' W 074°06'1 2.4
2018-Jan-11 15:00N 40°39' W 074°05'2 3.4
2018-Jan-11 14:30N 40°40' W 074°03'2 3.8
2018-Jan-11 13:58N 40°39' W 074°05'2 3.5
2018-Jan-11 13:30N 40°39' W 074°07'0 0.0
2018-Jan-11 12:05N 40°39' W 074°07'0 0.0
2018-Jan-11 10:15N 40°39' W 074°07'0 0.0
2018-Jan-11 04:23N 40°39' W 074°07'0 0.0
2018-Jan-11 03:54N 40°39' W 074°07'3 8.0
2018-Jan-11 03:30N 40°40' W 074°03'0 0.6
2018-Jan-11 03:00N 40°40' W 074°04'6 3.9
2018-Jan-11 01:32N 40°39' W 074°11'0 1.0
2018-Jan-11 01:22N 40°39' W 074°11'0 0.1
2018-Jan-10 23:52N 40°39' W 074°11'2 5.6
2018-Jan-10 23:30N 40°39' W 074°09'2 3.3
2018-Jan-10 23:00N 40°39' W 074°07'0 0.1
2018-Jan-10 22:24N 40°39' W 074°07'0 0.0
2018-Jan-10 21:57N 40°39' W 074°07'3 7.6
2018-Jan-10 21:30N 40°39' W 074°02'2 3.7
2018-Jan-10 21:00N 40°40' W 074°00'0 0.0
2018-Jan-10 20:30N 40°40' W 074°00'0 0.0
2018-Jan-10 20:00N 40°40' W 074°00'0 0.0
2018-Jan-10 19:30N 40°40' W 074°00'0 0.0
2018-Jan-10 19:00N 40°40' W 074°00'0 0.0
2018-Jan-10 18:30N 40°40' W 074°00'0 0.2
2018-Jan-10 18:00N 40°40' W 074°00'0 0.0
2018-Jan-10 17:30N 40°40' W 074°00'0 0.0
2018-Jan-10 17:00N 40°40' W 074°00'0 0.0
2018-Jan-10 16:30N 40°40' W 074°00'0 0.0
2018-Jan-10 16:00N 40°40' W 074°00'3 5.8
2018-Jan-10 15:30N 40°39' W 074°04'  

Dump ship's entire track history